createdAt,value
2019-04-05T00:00:44.251Z,97.485352
2019-04-05T00:01:44.335Z,97.485352
2019-04-05T00:02:44.401Z,97.589111
2019-04-05T00:03:44.493Z,97.589111
2019-04-05T00:04:44.557Z,97.589111
2019-04-05T00:05:44.658Z,97.589111
2019-04-05T00:06:44.749Z,97.589111
2019-04-05T00:07:44.834Z,97.589111
2019-04-05T00:08:44.887Z,97.686768
2019-04-05T00:09:44.980Z,97.686768
2019-04-05T00:10:45.083Z,97.686768
2019-04-05T00:11:45.173Z,97.686768
2019-04-05T00:12:45.217Z,97.686768
2019-04-05T00:13:45.318Z,97.686768
2019-04-05T00:14:45.438Z,97.790527
2019-04-05T00:15:45.532Z,97.790527
2019-04-05T00:16:45.532Z,97.894287
2019-04-05T00:17:45.627Z,97.894287
2019-04-05T00:18:45.699Z,97.998047
2019-04-05T00:19:45.828Z,98.101807
2019-04-05T00:20:45.931Z,98.101807
2019-04-05T00:21:46.026Z,98.205566
2019-04-05T00:22:46.111Z,98.205566
2019-04-05T00:23:46.173Z,98.309326
2019-04-05T00:24:46.258Z,98.309326
2019-04-05T00:25:46.409Z,98.309326
2019-04-05T00:26:46.419Z,98.413086
2019-04-05T00:27:46.516Z,98.413086
2019-04-05T00:28:46.632Z,98.516846
2019-04-05T00:29:46.678Z,98.516846
2019-04-05T00:30:46.791Z,98.620605
2019-04-05T00:31:46.905Z,98.620605
2019-04-05T00:32:47.010Z,98.724365
2019-04-05T00:33:47.133Z,98.724365
2019-04-05T00:34:47.277Z,98.724365
2019-04-05T00:35:47.392Z,98.724365
2019-04-05T00:36:47.524Z,98.724365
2019-04-05T00:37:47.622Z,98.724365
2019-04-05T00:38:47.737Z,98.724365
2019-04-05T00:39:47.825Z,98.724365
2019-04-05T00:40:47.918Z,98.724365
2019-04-05T00:41:48.032Z,98.724365
2019-04-05T00:42:48.152Z,98.724365
2019-04-05T00:43:48.241Z,98.724365
2019-04-05T00:44:48.342Z,98.724365
2019-04-05T00:45:48.440Z,98.724365
2019-04-05T00:46:48.573Z,98.620605
2019-04-05T00:47:48.663Z,98.76709
2019-04-05T00:48:48.738Z,98.76709
2019-04-05T00:49:48.893Z,98.76709
2019-04-05T00:50:49.017Z,98.76709
2019-04-05T00:51:49.158Z,98.724365
2019-04-05T00:52:49.255Z,98.724365
2019-04-05T00:53:49.334Z,98.724365
2019-04-05T00:54:49.426Z,98.724365
2019-04-05T00:55:49.566Z,98.828125
2019-04-05T00:56:49.677Z,98.828125
2019-04-05T00:57:49.776Z,98.828125
2019-04-05T00:58:49.873Z,98.828125
2019-04-05T00:59:49.941Z,98.828125
2019-04-05T01:00:50.047Z,98.724365
2019-04-05T01:01:50.164Z,98.76709
2019-04-05T01:02:50.229Z,98.76709
2019-04-05T01:03:50.287Z,98.76709
2019-04-05T01:04:50.345Z,98.76709
2019-04-05T01:05:50.437Z,98.76709
2019-04-05T01:06:50.432Z,98.76709
2019-04-05T01:07:50.550Z,98.76709
2019-04-05T01:08:50.653Z,98.724365
2019-04-05T01:09:50.777Z,98.724365
2019-04-05T01:10:50.871Z,98.724365
2019-04-05T01:11:50.965Z,98.828125
2019-04-05T01:12:51.076Z,98.828125
2019-04-05T01:13:51.153Z,98.828125
2019-04-05T01:14:51.251Z,98.724365
2019-04-05T01:15:51.342Z,98.724365
2019-04-05T01:16:51.460Z,98.724365
2019-04-05T01:17:51.562Z,98.724365
2019-04-05T01:18:51.648Z,98.724365
2019-04-05T01:19:52.722Z,98.724365
2019-04-05T01:20:51.817Z,98.724365
2019-04-05T01:21:51.945Z,98.724365
2019-04-05T01:22:53.031Z,98.724365
2019-04-05T01:23:52.123Z,98.724365
2019-04-05T01:24:52.184Z,98.724365
2019-04-05T01:25:52.270Z,98.724365
2019-04-05T01:26:52.418Z,98.724365
2019-04-05T01:27:52.523Z,98.724365
2019-04-05T01:28:52.626Z,98.724365
2019-04-05T01:29:52.741Z,98.620605
2019-04-05T01:30:52.832Z,98.724365
2019-04-05T01:31:52.963Z,98.724365
2019-04-05T01:32:53.051Z,98.724365
2019-04-05T01:33:53.139Z,98.724365
2019-04-05T01:34:54.221Z,98.724365
2019-04-05T01:35:53.318Z,98.724365
2019-04-05T01:36:53.437Z,98.620605
2019-04-05T01:37:53.545Z,98.620605
2019-04-05T01:38:53.662Z,98.620605
2019-04-05T01:39:53.731Z,98.620605
2019-04-05T01:40:53.810Z,98.620605
2019-04-05T01:41:53.927Z,98.620605
2019-04-05T01:42:54.019Z,98.620605
2019-04-05T01:43:54.123Z,98.516846
2019-04-05T01:44:54.214Z,98.516846
2019-04-05T01:45:54.394Z,98.516846
2019-04-05T01:46:54.402Z,98.516846
2019-04-05T01:47:54.485Z,98.516846
2019-04-05T01:48:54.581Z,98.516846
2019-04-05T01:49:54.685Z,98.516846
2019-04-05T01:50:54.779Z,98.516846
2019-04-05T01:51:54.937Z,98.516846
2019-04-05T01:52:55.023Z,98.516846
2019-04-05T01:53:55.092Z,98.516846
2019-04-05T01:54:55.189Z,98.516846
2019-04-05T01:55:55.282Z,98.516846
2019-04-05T01:56:55.404Z,98.516846
2019-04-05T01:57:55.501Z,98.413086
2019-04-05T01:58:55.623Z,98.413086
2019-04-05T01:59:55.734Z,98.413086
2019-04-05T02:00:55.830Z,98.413086
2019-04-05T02:01:55.960Z,98.413086
2019-04-05T02:02:56.066Z,98.413086
2019-04-05T02:03:56.129Z,98.413086
2019-04-05T02:04:56.224Z,98.309326
2019-04-05T02:05:56.277Z,98.309326
2019-04-05T02:06:56.423Z,98.309326
2019-04-05T02:07:56.486Z,98.309326
2019-04-05T02:08:56.589Z,98.254395
2019-04-05T02:09:56.684Z,98.254395
2019-04-05T02:10:56.765Z,98.254395
2019-04-05T02:11:56.910Z,98.254395
2019-04-05T02:12:56.875Z,98.254395
2019-04-05T02:13:56.971Z,98.352051
2019-04-05T02:14:57.053Z,98.352051
2019-04-05T02:16:05.911Z,98.352051
2019-04-05T02:16:57.245Z,98.352051
2019-04-05T02:17:57.341Z,98.352051
2019-04-05T02:18:57.436Z,98.352051
2019-04-05T02:19:57.530Z,98.352051
2019-04-05T02:20:57.626Z,98.352051
2019-04-05T02:21:57.851Z,98.455811
2019-04-05T02:22:57.743Z,98.455811
2019-04-05T02:23:57.844Z,98.455811
2019-04-05T02:24:57.912Z,98.55957
2019-04-05T02:25:57.983Z,98.55957
2019-04-05T02:26:58.093Z,98.55957
2019-04-05T02:27:58.194Z,98.55957
2019-04-05T02:28:58.286Z,98.66333
2019-04-05T02:29:58.367Z,98.66333
2019-04-05T02:30:58.377Z,98.66333
2019-04-05T02:31:59.470Z,98.66333
2019-04-05T02:32:58.601Z,98.76709
2019-04-05T02:33:58.701Z,98.76709
2019-04-05T02:34:58.795Z,98.76709
2019-04-05T02:35:58.941Z,98.76709
2019-04-05T02:36:58.999Z,98.76709
2019-04-05T02:37:59.050Z,98.76709
2019-04-05T02:38:59.151Z,98.76709
2019-04-05T02:39:59.252Z,98.87085
2019-04-05T02:40:59.364Z,98.87085
2019-04-05T02:41:59.453Z,98.87085
2019-04-05T02:42:59.478Z,98.87085
2019-04-05T02:43:59.573Z,98.974609
2019-04-05T02:44:59.666Z,98.974609
2019-04-05T02:45:59.793Z,98.974609
2019-04-05T02:47:00.828Z,98.974609
2019-04-05T02:47:59.955Z,98.974609
2019-04-05T02:49:00.048Z,98.974609
2019-04-05T02:50:00.157Z,98.974609
2019-04-05T02:51:00.243Z,98.974609
2019-04-05T02:52:00.346Z,98.974609
2019-04-05T02:53:00.481Z,98.974609
2019-04-05T02:54:00.568Z,98.974609
2019-04-05T02:55:00.670Z,99.078369
2019-04-05T02:56:02.907Z,98.974609
2019-04-05T02:57:00.843Z,98.974609
2019-04-05T02:58:00.971Z,98.974609
2019-04-05T02:59:01.061Z,99.078369
2019-04-05T03:00:01.145Z,99.035645
2019-04-05T03:01:01.261Z,99.035645
2019-04-05T03:02:01.378Z,99.035645
2019-04-05T03:03:01.512Z,99.035645
2019-04-05T03:04:01.592Z,99.035645
2019-04-05T03:05:01.674Z,99.035645
2019-04-05T03:06:01.775Z,99.035645
2019-04-05T03:07:02.851Z,99.035645
2019-04-05T03:08:01.992Z,99.035645
2019-04-05T03:09:02.069Z,98.931885
2019-04-05T03:10:02.172Z,98.931885
2019-04-05T03:11:02.267Z,98.974609
2019-04-05T03:12:02.400Z,98.974609
2019-04-05T03:13:02.542Z,98.974609
2019-04-05T03:14:02.693Z,98.931885
2019-04-05T03:15:02.781Z,98.974609
2019-04-05T03:16:02.915Z,98.974609
2019-04-05T03:17:03.001Z,98.974609
2019-04-05T03:18:02.998Z,98.974609
2019-04-05T03:19:03.087Z,98.931885
2019-04-05T03:20:03.176Z,98.974609
2019-04-05T03:21:03.258Z,98.931885
2019-04-05T03:22:03.353Z,98.931885
2019-04-05T03:23:03.541Z,98.931885
2019-04-05T03:24:03.497Z,99.035645
2019-04-05T03:25:03.596Z,98.931885
2019-04-05T03:26:03.731Z,98.931885
2019-04-05T03:27:03.826Z,98.931885
2019-04-05T03:28:03.961Z,98.931885
2019-04-05T03:29:04.080Z,98.931885
2019-04-05T03:30:04.178Z,98.931885
2019-04-05T03:31:04.326Z,98.931885
2019-04-05T03:32:04.467Z,98.931885
2019-04-05T03:33:04.547Z,98.931885
2019-04-05T03:34:04.646Z,98.931885
2019-04-05T03:35:04.842Z,98.931885
2019-04-05T03:36:04.775Z,98.931885
2019-04-05T03:37:04.863Z,98.931885
2019-04-05T03:38:05.011Z,98.931885
2019-04-05T03:39:05.113Z,98.931885
2019-04-05T03:40:05.256Z,98.828125
2019-04-05T03:41:05.361Z,98.828125
2019-04-05T03:42:05.453Z,98.828125
2019-04-05T03:43:05.584Z,98.828125
2019-04-05T03:44:05.699Z,98.724365
2019-04-05T03:45:05.803Z,98.724365
2019-04-05T03:46:05.822Z,98.724365
2019-04-05T03:47:05.938Z,98.724365
2019-04-05T03:48:06.127Z,98.724365
2019-04-05T03:49:06.089Z,98.724365
2019-04-05T03:50:06.223Z,98.724365
2019-04-05T03:51:06.212Z,98.724365
2019-04-05T03:52:06.304Z,98.724365
2019-04-05T03:53:06.457Z,98.724365
2019-04-05T03:54:06.438Z,98.724365
2019-04-05T03:55:06.538Z,98.724365
2019-04-05T03:56:06.643Z,98.724365
2019-04-05T03:57:06.741Z,98.724365
2019-04-05T03:58:06.898Z,98.724365
2019-04-05T03:59:07.005Z,98.620605
2019-04-05T04:00:07.118Z,98.620605
2019-04-05T04:01:07.195Z,98.620605
2019-04-05T04:02:07.300Z,98.620605
2019-04-05T04:03:07.449Z,98.620605
2019-04-05T04:04:07.392Z,98.620605
2019-04-05T04:05:07.510Z,98.620605
2019-04-05T04:06:07.652Z,98.620605
2019-04-05T04:07:07.770Z,98.620605
2019-04-05T04:08:07.906Z,98.620605
2019-04-05T04:09:08.872Z,98.620605
2019-04-05T04:10:07.953Z,98.620605
2019-04-05T04:11:08.050Z,98.620605
2019-04-05T04:12:08.158Z,98.620605
2019-04-05T04:13:08.269Z,98.620605
2019-04-05T04:14:09.387Z,98.620605
2019-04-05T04:15:08.496Z,98.620605
2019-04-05T04:16:08.575Z,98.620605
2019-04-05T04:17:12.416Z,98.620605
2019-04-05T04:18:08.738Z,98.620605
2019-04-05T04:19:08.743Z,98.620605
2019-04-05T04:20:08.862Z,98.620605
2019-04-05T04:21:08.931Z,98.620605
2019-04-05T04:22:09.034Z,98.620605
2019-04-05T04:23:09.159Z,98.620605
2019-04-05T04:24:09.246Z,98.620605
2019-04-05T04:25:09.352Z,98.620605
2019-04-05T04:26:09.443Z,98.516846
2019-04-05T04:27:09.533Z,98.516846
2019-04-05T04:28:09.611Z,98.516846
2019-04-05T04:29:09.767Z,98.516846
2019-04-05T04:30:09.883Z,98.516846
2019-04-05T04:31:10.000Z,98.413086
2019-04-05T04:32:10.088Z,98.516846
2019-04-05T04:33:10.196Z,98.516846
2019-04-05T04:34:10.242Z,98.516846
2019-04-05T04:35:10.175Z,98.516846
2019-04-05T04:36:12.975Z,98.516846
2019-04-05T04:37:10.373Z,98.516846
2019-04-05T04:38:10.486Z,98.620605
2019-04-05T04:39:10.628Z,98.620605
2019-04-05T04:40:10.758Z,98.620605
2019-04-05T04:41:10.889Z,98.620605
2019-04-05T04:42:11.007Z,98.620605
2019-04-05T04:43:11.162Z,98.620605
2019-04-05T04:44:11.303Z,98.620605
2019-04-05T04:45:12.828Z,98.620605
2019-04-05T04:46:11.481Z,98.620605
2019-04-05T04:47:24.948Z,98.620605
2019-04-05T04:48:12.681Z,98.620605
2019-04-05T04:49:11.804Z,98.620605
2019-04-05T04:50:11.902Z,98.620605
2019-04-05T04:51:12.011Z,98.620605
2019-04-05T04:52:12.120Z,98.516846
2019-04-05T04:53:12.236Z,98.516846
2019-04-05T04:54:12.381Z,98.516846
2019-04-05T04:55:12.488Z,98.516846
2019-04-05T04:56:12.595Z,98.516846
2019-04-05T04:57:12.701Z,98.516846
2019-04-05T04:58:12.808Z,98.516846
2019-04-05T04:59:12.934Z,98.516846
2019-04-05T05:00:12.939Z,98.516846
2019-04-05T05:01:13.051Z,98.516846
2019-04-05T05:02:13.161Z,98.516846
2019-04-05T05:03:13.275Z,98.516846
2019-04-05T05:04:13.441Z,98.516846
2019-04-05T05:05:13.525Z,98.516846
2019-04-05T05:06:13.637Z,98.516846
2019-04-05T05:07:13.728Z,98.516846
2019-04-05T05:08:13.841Z,98.516846
2019-04-05T05:09:13.962Z,98.516846
2019-04-05T05:10:14.062Z,98.516846
2019-04-05T05:11:15.093Z,98.516846
2019-04-05T05:12:14.268Z,98.516846
2019-04-05T05:13:14.366Z,98.620605
2019-04-05T05:14:14.507Z,98.516846
2019-04-05T05:15:14.626Z,98.516846
2019-04-05T05:16:15.711Z,98.516846
2019-04-05T05:17:14.809Z,98.516846
2019-04-05T05:18:15.905Z,98.620605
2019-04-05T05:19:15.029Z,98.620605
2019-04-05T05:20:15.138Z,98.620605
2019-04-05T05:21:15.247Z,98.516846
2019-04-05T05:22:15.348Z,98.620605
2019-04-05T05:23:15.502Z,98.620605
2019-04-05T05:24:15.622Z,98.620605
2019-04-05T05:25:15.717Z,98.620605
2019-04-05T05:26:15.747Z,98.620605
2019-04-05T05:27:15.879Z,98.620605
2019-04-05T05:28:15.985Z,98.620605
2019-04-05T05:29:16.112Z,98.620605
2019-04-05T05:30:16.239Z,98.620605
2019-04-05T05:31:16.356Z,98.620605
2019-04-05T05:32:16.462Z,98.620605
2019-04-05T05:33:16.572Z,98.620605
2019-04-05T05:34:16.748Z,98.620605
2019-04-05T05:35:16.847Z,98.620605
2019-04-05T05:36:16.969Z,98.620605
2019-04-05T05:37:17.076Z,98.724365
2019-04-05T05:38:17.084Z,98.620605
2019-04-05T05:39:17.101Z,98.620605
2019-04-05T05:40:17.111Z,98.620605
2019-04-05T05:41:18.223Z,98.620605
2019-04-05T05:42:17.368Z,98.620605
2019-04-05T05:43:17.530Z,98.620605
2019-04-05T05:44:17.731Z,98.620605
2019-04-05T05:45:17.716Z,98.620605
2019-04-05T05:46:17.704Z,98.516846
2019-04-05T05:47:17.861Z,98.620605
2019-04-05T05:48:17.931Z,98.516846
2019-04-05T05:49:18.991Z,98.516846
2019-04-05T05:50:18.016Z,98.516846
2019-04-05T05:51:18.044Z,98.516846
2019-04-05T05:52:18.109Z,98.516846
2019-04-05T05:53:18.099Z,98.516846
2019-04-05T05:54:18.270Z,98.516846
2019-04-05T05:55:18.267Z,98.516846
2019-04-05T05:56:19.345Z,98.468018
2019-04-05T05:57:18.439Z,98.571777
2019-04-05T05:58:18.500Z,98.571777
2019-04-05T05:59:18.560Z,98.571777
2019-04-05T06:00:19.607Z,98.571777
2019-04-05T06:01:19.634Z,98.571777
2019-04-05T06:02:18.678Z,98.571777
2019-04-05T06:03:18.737Z,98.571777
2019-04-05T06:04:18.819Z,98.571777
2019-04-05T06:05:18.869Z,98.571777
2019-04-05T06:06:18.918Z,98.571777
2019-04-05T06:07:20.147Z,98.675537
2019-04-05T06:08:18.995Z,98.675537
2019-04-05T06:09:19.120Z,98.571777
2019-04-05T06:10:19.177Z,98.571777
2019-04-05T06:11:19.235Z,98.571777
2019-04-05T06:12:19.286Z,98.571777
2019-04-05T06:13:19.352Z,98.571777
2019-04-05T06:14:19.431Z,98.571777
2019-04-05T06:15:19.513Z,98.571777
2019-04-05T06:16:19.611Z,98.468018
2019-04-05T06:17:19.654Z,98.468018
2019-04-05T06:18:19.697Z,98.468018
2019-04-05T06:19:19.762Z,98.468018
2019-04-05T06:20:19.892Z,98.425293
2019-04-05T06:21:19.936Z,98.425293
2019-04-05T06:22:19.979Z,98.425293
2019-04-05T06:23:32.708Z,98.425293
2019-04-05T06:24:21.068Z,98.425293
2019-04-05T06:25:20.147Z,98.425293
2019-04-05T06:26:20.210Z,98.425293
2019-04-05T06:27:20.254Z,98.425293
2019-04-05T06:28:20.299Z,98.425293
2019-04-05T06:29:20.353Z,98.321533
2019-04-05T06:30:20.442Z,98.321533
2019-04-05T06:31:20.512Z,98.321533
2019-04-05T06:32:20.592Z,98.217773
2019-04-05T06:33:30.839Z,98.114014
2019-04-05T06:34:21.666Z,98.114014
2019-04-05T06:35:20.755Z,98.114014
2019-04-05T06:36:20.790Z,98.217773
2019-04-05T06:37:20.841Z,98.217773
2019-04-05T06:38:20.884Z,98.175049
2019-04-05T06:39:20.984Z,98.071289
2019-04-05T06:40:21.019Z,98.071289
2019-04-05T06:41:22.033Z,97.967529
2019-04-05T06:42:21.081Z,97.86377
2019-04-05T06:43:21.138Z,97.967529
2019-04-05T06:44:21.196Z,97.967529
2019-04-05T06:45:21.265Z,97.967529
2019-04-05T06:46:21.321Z,97.86377
2019-04-05T06:47:21.367Z,97.76001
2019-04-05T06:48:21.411Z,97.76001
2019-04-05T06:49:21.451Z,97.76001
2019-04-05T06:50:21.555Z,97.76001
2019-04-05T06:51:21.606Z,97.821045
2019-04-05T06:52:21.664Z,97.717285
2019-04-05T06:53:21.711Z,97.613525
2019-04-05T06:54:21.754Z,97.613525
2019-04-05T06:55:21.850Z,97.302246
2019-04-05T06:56:21.914Z,97.302246
2019-04-05T06:57:21.959Z,97.302246
2019-04-05T06:58:28.795Z,97.406006
2019-04-05T06:59:22.033Z,97.302246
2019-04-05T07:00:22.039Z,96.887207
2019-04-05T07:01:22.081Z,96.789551
2019-04-05T07:02:22.137Z,96.789551
2019-04-05T07:03:22.213Z,96.789551
2019-04-05T07:04:22.278Z,96.887207
2019-04-05T07:05:22.354Z,96.740723
2019-04-05T07:06:22.437Z,96.374512
2019-04-05T07:07:22.492Z,96.270752
2019-04-05T07:08:22.599Z,96.331787
2019-04-05T07:09:22.641Z,96.435547
2019-04-05T07:10:23.742Z,96.533203
2019-04-05T07:11:22.812Z,96.533203
2019-04-05T07:12:22.854Z,96.533203
2019-04-05T07:13:22.901Z,96.435547
2019-04-05T07:14:22.946Z,96.228027
2019-04-05T07:15:23.044Z,95.709229
2019-04-05T07:16:23.116Z,95.709229
2019-04-05T07:17:23.133Z,95.916748
2019-04-05T07:18:32.863Z,96.020508
2019-04-05T07:19:24.326Z,95.874023
2019-04-05T07:20:23.844Z,95.770264
2019-04-05T07:21:23.442Z,95.562744
2019-04-05T07:22:35.797Z,95.562744
2019-04-05T07:23:24.477Z,95.050049
2019-04-05T07:24:23.606Z,95.050049
2019-04-05T07:25:23.686Z,95.153809
2019-04-05T07:26:23.739Z,95.050049
2019-04-05T07:27:23.847Z,95.050049
2019-04-05T07:28:25.168Z,95.153809
2019-04-05T07:29:23.931Z,95.001221
2019-04-05T07:30:24.008Z,94.903564
2019-04-05T07:31:25.037Z,94.696045
2019-04-05T07:32:24.075Z,94.384766
2019-04-05T07:33:24.114Z,94.177246
2019-04-05T07:34:24.153Z,94.177246
2019-04-05T07:35:33.095Z,93.87207
2019-04-05T07:36:24.225Z,93.87207
2019-04-05T07:37:24.303Z,93.87207
2019-04-05T07:38:24.358Z,93.87207
2019-04-05T07:39:24.454Z,93.87207
2019-04-05T07:40:24.479Z,93.768311
2019-04-05T07:41:24.547Z,93.664551
2019-04-05T07:42:24.583Z,93.353271
2019-04-05T07:43:24.632Z,93.457031
2019-04-05T07:44:24.692Z,93.560791
2019-04-05T07:45:24.757Z,93.457031
2019-04-05T07:46:24.815Z,93.249512
2019-04-05T07:47:24.858Z,93.310547
2019-04-05T07:48:24.914Z,92.694092
2019-04-05T07:49:25.956Z,92.901611
2019-04-05T07:50:25.030Z,92.797852
2019-04-05T07:51:25.075Z,92.694092
2019-04-05T07:52:25.129Z,92.694092
2019-04-05T07:53:25.221Z,92.590332
2019-04-05T07:54:25.263Z,93.005371
2019-04-05T07:55:25.394Z,93.005371
2019-04-05T07:56:25.471Z,93.005371
2019-04-05T07:57:25.518Z,92.901611
2019-04-05T07:58:25.582Z,92.694092
2019-04-05T07:59:25.643Z,92.285156
2019-04-05T08:00:25.738Z,92.590332
2019-04-05T08:01:25.784Z,93.005371
2019-04-05T08:02:25.826Z,92.901611
2019-04-05T08:03:25.892Z,92.285156
2019-04-05T08:04:25.935Z,92.382812
2019-04-05T08:05:26.031Z,92.486572
2019-04-05T08:06:26.142Z,92.590332
2019-04-05T08:07:26.233Z,92.694092
2019-04-05T08:08:26.310Z,92.382812
2019-04-05T08:09:27.358Z,92.077637
2019-04-05T08:10:26.404Z,92.077637
2019-04-05T08:11:26.425Z,91.870117
2019-04-05T08:12:26.476Z,91.973877
2019-04-05T08:13:26.526Z,92.077637
2019-04-05T08:14:26.572Z,92.181396
2019-04-05T08:15:26.677Z,92.181396
2019-04-05T08:16:26.761Z,92.285156
2019-04-05T08:17:26.812Z,92.138672
2019-04-05T08:18:26.871Z,91.827393
2019-04-05T08:19:26.962Z,91.619873
2019-04-05T08:20:27.136Z,91.931152
2019-04-05T08:21:27.247Z,91.931152
2019-04-05T08:22:27.334Z,91.516113
2019-04-05T08:23:27.374Z,91.418457
2019-04-05T08:24:27.506Z,91.723633
2019-04-05T08:25:27.580Z,92.340088
2019-04-05T08:26:28.653Z,92.138672
2019-04-05T08:27:27.763Z,91.723633
2019-04-05T08:28:29.621Z,91.619873
2019-04-05T08:29:27.956Z,91.723633
2019-04-05T08:30:28.098Z,91.723633
2019-04-05T08:31:28.182Z,90.692139
2019-04-05T08:32:28.252Z,90.283203
2019-04-05T08:33:28.296Z,90.899658
2019-04-05T08:34:28.337Z,91.210938
2019-04-05T08:35:28.396Z,90.075684
2019-04-05T08:36:28.538Z,90.490723
2019-04-05T08:37:28.591Z,90.655518
2019-04-05T08:38:28.644Z,89.727783
2019-04-05T08:39:29.677Z,89.727783
2019-04-05T08:40:28.816Z,89.996338
2019-04-05T08:41:28.896Z,89.379883
2019-04-05T08:42:28.939Z,89.068604
2019-04-05T08:43:29.002Z,88.861084
2019-04-05T08:44:29.069Z,88.964844
2019-04-05T08:45:29.113Z,89.581299
2019-04-05T08:46:29.204Z,89.685059
2019-04-05T08:47:29.258Z,88.861084
2019-04-05T08:48:29.298Z,88.452148
2019-04-05T08:49:29.339Z,87.835693
2019-04-05T08:50:29.403Z,88.348389
2019-04-05T08:51:29.504Z,88.140869
2019-04-05T08:52:29.561Z,88.348389
2019-04-05T08:53:29.607Z,88.140869
2019-04-05T08:54:32.665Z,88.140869
2019-04-05T08:55:29.681Z,88.244629
2019-04-05T08:56:29.797Z,89.172363
2019-04-05T08:57:29.878Z,89.379883
2019-04-05T08:58:33.453Z,89.276123
2019-04-05T08:59:29.947Z,89.581299
2019-04-05T09:00:30.013Z,89.477539
2019-04-05T09:01:30.145Z,89.172363
2019-04-05T09:02:30.189Z,87.420654
2019-04-05T09:03:30.292Z,87.939453
2019-04-05T09:04:30.336Z,88.140869
2019-04-05T09:05:33.198Z,88.452148
2019-04-05T09:06:30.465Z,88.452148
2019-04-05T09:07:30.514Z,87.670898
2019-04-05T09:08:30.556Z,87.976074
2019-04-05T09:09:30.608Z,87.872314
2019-04-05T09:10:30.675Z,88.183594
2019-04-05T09:11:30.746Z,88.592529
2019-04-05T09:12:30.794Z,88.494873
2019-04-05T09:13:30.852Z,87.976074
2019-04-05T09:14:30.909Z,87.976074
2019-04-05T09:15:30.998Z,88.696289
2019-04-05T09:16:31.077Z,88.696289
2019-04-05T09:17:31.141Z,87.774658
2019-04-05T09:18:31.185Z,87.835693
2019-04-05T09:19:31.239Z,86.804199
2019-04-05T09:20:31.312Z,87.420654
2019-04-05T09:21:31.451Z,88.659668
2019-04-05T09:22:31.454Z,87.731934
2019-04-05T09:23:31.497Z,87.792969
2019-04-05T09:24:31.554Z,87.384033
2019-04-05T09:25:31.602Z,86.663818
2019-04-05T09:26:31.701Z,86.248779
2019-04-05T09:27:31.756Z,86.151123
2019-04-05T09:28:31.813Z,85.736084
2019-04-05T09:29:31.862Z,86.456299
2019-04-05T09:30:31.904Z,86.865234
2019-04-05T09:31:31.968Z,87.176514
2019-04-05T09:32:32.080Z,86.968994
2019-04-05T09:33:33.152Z,87.176514
2019-04-05T09:34:32.194Z,87.072754
2019-04-05T09:35:32.240Z,87.072754
2019-04-05T09:36:32.295Z,87.115479
2019-04-05T09:37:33.382Z,86.907959
2019-04-05T09:38:32.521Z,87.011719
2019-04-05T09:39:32.582Z,87.420654
2019-04-05T09:40:32.688Z,87.420654
2019-04-05T09:41:32.755Z,87.524414
2019-04-05T09:42:32.884Z,87.731934
2019-04-05T09:43:32.921Z,87.628174
2019-04-05T09:44:32.975Z,87.115479
2019-04-05T09:45:33.021Z,87.115479
2019-04-05T09:46:45.585Z,87.219238
2019-04-05T09:47:34.144Z,87.420654
2019-04-05T09:48:33.181Z,87.420654
2019-04-05T09:49:36.819Z,87.524414
2019-04-05T09:50:33.253Z,87.731934
2019-04-05T09:51:33.344Z,87.524414
2019-04-05T09:52:33.462Z,87.115479
2019-04-05T09:53:33.530Z,87.316895
2019-04-05T09:54:33.600Z,87.524414
2019-04-05T09:55:33.676Z,87.384033
2019-04-05T09:56:33.729Z,87.689209
2019-04-05T09:57:33.821Z,87.792969
2019-04-05T09:58:33.883Z,87.689209
2019-04-05T09:59:33.947Z,87.585449
2019-04-05T10:00:34.005Z,87.280273
2019-04-05T10:01:34.049Z,87.384033
2019-04-05T10:02:34.137Z,87.176514
2019-04-05T10:03:34.198Z,86.968994
2019-04-05T10:04:34.286Z,86.352539
2019-04-05T10:05:34.395Z,86.456299
2019-04-05T10:06:34.480Z,86.248779
2019-04-05T10:07:34.577Z,86.865234
2019-04-05T10:08:35.612Z,86.968994
2019-04-05T10:09:34.675Z,87.280273
2019-04-05T10:10:34.743Z,86.968994
2019-04-05T10:11:34.786Z,86.560059
2019-04-05T10:12:34.906Z,86.865234
2019-04-05T10:13:34.949Z,87.585449
2019-04-05T10:14:35.072Z,87.280273
2019-04-05T10:15:35.062Z,87.487793
2019-04-05T10:16:35.109Z,87.585449
2019-04-05T10:17:35.219Z,87.487793
2019-04-05T10:18:35.266Z,86.456299
2019-04-05T10:19:35.310Z,86.456299
2019-04-05T10:20:38.862Z,86.248779
2019-04-05T10:21:35.376Z,86.767578
2019-04-05T10:22:35.479Z,87.176514
2019-04-05T10:23:35.525Z,87.176514
2019-04-05T10:24:35.576Z,87.487793
2019-04-05T10:25:35.619Z,87.280273
2019-04-05T10:26:35.651Z,86.968994
2019-04-05T10:27:35.755Z,86.865234
2019-04-05T10:28:35.797Z,86.560059
2019-04-05T10:29:35.838Z,85.736084
2019-04-05T10:30:36.872Z,85.839844
2019-04-05T10:31:35.915Z,86.248779
2019-04-05T10:32:36.038Z,86.865234
2019-04-05T10:33:36.088Z,86.083984
2019-04-05T10:34:36.144Z,86.602783
2019-04-05T10:35:36.206Z,86.602783
2019-04-05T10:36:36.307Z,86.352539
2019-04-05T10:37:36.313Z,86.560059
2019-04-05T10:38:36.377Z,87.384033
2019-04-05T10:39:36.471Z,86.865234
2019-04-05T10:40:36.530Z,86.352539
2019-04-05T10:41:36.582Z,86.248779
2019-04-05T10:42:36.665Z,86.456299
2019-04-05T10:43:36.741Z,86.352539
2019-04-05T10:44:36.783Z,86.047363
2019-04-05T10:45:36.842Z,86.352539
2019-04-05T10:46:36.890Z,86.828613
2019-04-05T10:47:36.968Z,86.419678
2019-04-05T10:48:37.023Z,85.803223
2019-04-05T10:49:37.081Z,85.595703
2019-04-05T10:50:37.129Z,84.564209
2019-04-05T10:51:37.172Z,84.667969
2019-04-05T10:52:37.247Z,85.180664
2019-04-05T10:53:37.303Z,84.979248
2019-04-05T10:54:37.346Z,84.875488
2019-04-05T10:55:37.351Z,84.423828
2019-04-05T10:56:37.451Z,85.351562
2019-04-05T10:57:37.541Z,84.735107
2019-04-05T10:58:37.651Z,84.631348
2019-04-05T10:59:38.531Z,84.735107
2019-04-05T11:00:38.801Z,84.527588
2019-04-05T11:01:37.878Z,85.351562
2019-04-05T11:02:37.976Z,85.552979
2019-04-05T11:03:38.021Z,86.621094
2019-04-05T11:04:38.072Z,86.108398
2019-04-05T11:05:38.181Z,85.803223
2019-04-05T11:06:38.257Z,86.212158
2019-04-05T11:07:38.454Z,85.803223
2019-04-05T11:08:38.383Z,85.284424
2019-04-05T11:09:38.437Z,85.803223
2019-04-05T11:10:38.510Z,84.710693
2019-04-05T11:11:38.545Z,85.736084
2019-04-05T11:12:38.617Z,85.943604
2019-04-05T11:13:39.691Z,86.047363
2019-04-05T11:14:38.720Z,86.248779
2019-04-05T11:15:38.770Z,86.352539
2019-04-05T11:16:38.804Z,86.456299
2019-04-05T11:17:41.481Z,86.560059
2019-04-05T11:18:38.854Z,86.248779
2019-04-05T11:19:38.896Z,86.663818
2019-04-05T11:20:38.935Z,87.072754
2019-04-05T11:21:38.980Z,86.663818
2019-04-05T11:22:40.022Z,86.456299
2019-04-05T11:23:39.096Z,86.560059
2019-04-05T11:24:39.154Z,86.865234
2019-04-05T11:25:39.213Z,87.072754
2019-04-05T11:26:39.266Z,87.072754